Strona główna
METAR-TAF:

METAR-TAF

Lotnisko :

Port lotniczy Dakar

Dakar, Senegal

Szerokość geograficzna: 14-44N, Długość geograficzna: 017-30W, wysokość: 27 m

Aktualna obserwacja pogody

Raport powstał 1 godzina i 29 minut temu, godzina 00:00 UTC
Wiatr 6 kt od północno-północny wschód
Temperatura 25°C
Wilgotność 89%
Ciśnienie 1013 hPa
Widzialność: 9000 m

METAR: GOOY 260000Z 02006KT 9000 NSC 25/23 Q1013

czas: 01:29 (01:29 UTC)

Prognoza

Raport powstał 1 godzina i 59 minut temu, godzina 23:30 UTC
Prognoza ważna od 26 godzina 00 UTC do 27 godzina 06 UTC
Wiatr 10 kt od wschodnio-południowy wschód
Widzialność 10 km lub więcej
Rozproszone chmury na wysokości 1300 ft
Prawdopodobieństwo 40% :
Przejściowo
od 26 godzina 02 UTC do 26 godzina 04 UTC
Widzialność: 4000 m
Przerywane chmury na wysokości 1300 ft
Mało chmury na wysokości 2500 ft, Cumulonimbus.
burza, deszcz

TAF: GOOY 252330Z 2600/2706 12010KT 9999 SCT013 PROB40 TEMPO 2602/2604 4000 TSRA BKN013 FEW025CB

Obserwacja i prognoza pogody dla ponad 4000 lotnisk (raport METAR i TAF).

Dostępne stacje oznaczono żółtymi i czerwonymi punktami na mapie.

Najedź kursorem aby zobaczyć nazwę stacji.

Kliknij aby zobaczyć obserwacje i prognozy pogody.

Aby zmienić mapę: kliknij na zielony przycisk z czarnym krzyżykiem, aby powiększyć; na zielony przycisk z myślnikiem, aby pomniejszyć; na zielone strzałki, aby przejść do map sąsiednich.


METAR-TAF: